Time;durP1;ratioP1;P1;durP2;ratioP2;P2;SDS_P1;SDS_P2;PMS_P1;PMS_P2;Temp;Humidity;BMP_temperature;BMP_pressure;BME280_temperature;BME280_humidity;BME280_pressure;Samples;Min_cycle;Max_cycle;Signal;HPM_P1;HPM_P2
2023/04/10 00:00:42;;;;;;;8.63;6.03;;;;;;;17.35;41.93;100938.78;5112727;28;20071;-71
2023/04/10 00:03:12;;;;;;;8.15;5.80;;;;;;;17.31;41.79;100935.47;5112571;28;20412;-72
2023/04/10 00:05:41;;;;;;;8.55;6.38;;;;;;;17.27;41.88;100933.09;5112598;28;20524;-71
2023/04/10 00:08:09;;;;;;;8.27;6.20;;;;;;;17.27;41.79;100933.09;5112404;28;20071;-71
2023/04/10 00:10:37;;;;;;;8.43;6.43;;;;;;;17.23;41.76;100928.94;5112743;28;20043;-71
2023/04/10 00:13:05;;;;;;;9.13;5.90;;;;;;;17.17;41.86;100920.34;5112787;28;20080;-71
2023/04/10 00:15:34;;;;;;;9.02;6.40;;;;;;;17.16;41.83;100923.16;5112609;28;20138;-71
2023/04/10 00:18:02;;;;;;;8.70;6.13;;;;;;;17.14;41.89;100915.19;5112387;28;20051;-72
2023/04/10 00:20:32;;;;;;;8.90;6.38;;;;;;;17.13;41.81;100918.00;5112263;28;20134;-72
2023/04/10 00:23:00;;;;;;;10.55;6.22;;;;;;;17.12;41.88;100913.59;5112345;28;20052;-72
2023/04/10 00:25:28;;;;;;;8.20;6.07;;;;;;;17.08;41.83;100909.41;5112443;28;20075;-72
2023/04/10 00:27:56;;;;;;;8.88;6.40;;;;;;;17.07;41.84;100913.94;5112379;28;20408;-72
2023/04/10 00:30:24;;;;;;;8.90;6.63;;;;;;;17.05;41.88;100909.66;5112051;28;20420;-72
2023/04/10 00:32:52;;;;;;;8.05;6.00;;;;;;;17.03;41.84;100912.47;5112273;28;20112;-72
2023/04/10 00:35:21;;;;;;;8.52;6.13;;;;;;;17.00;41.89;100907.31;5112229;28;20047;-72
2023/04/10 00:37:50;;;;;;;8.80;6.72;;;;;;;16.99;41.89;100911.00;5112355;28;20446;-72
2023/04/10 00:40:18;;;;;;;9.63;6.53;;;;;;;16.97;41.99;100904.00;5112143;28;20507;-72
2023/04/10 00:42:46;;;;;;;10.10;6.18;;;;;;;16.92;41.92;100893.56;5112139;28;20134;-72
2023/04/10 00:45:14;;;;;;;8.50;6.28;;;;;;;16.94;41.81;100897.00;5111841;28;20044;-73
2023/04/10 00:47:43;;;;;;;8.90;6.55;;;;;;;16.91;41.90;100899.94;5111990;28;20104;-71
2023/04/10 00:50:11;;;;;;;8.05;6.07;;;;;;;16.88;42.00;100895.63;5112402;28;20047;-70
2023/04/10 00:52:39;;;;;;;8.77;6.05;;;;;;;16.85;41.82;100898.56;5112283;28;20093;-71
2023/04/10 00:55:10;;;;;;;8.00;6.00;;;;;;;16.85;41.93;100903.09;5112246;28;20085;-71
2023/04/10 00:57:40;;;;;;;8.85;6.90;;;;;;;16.82;41.85;100897.94;5111959;28;20553;-71
2023/04/10 01:00:09;;;;;;;9.25;6.72;;;;;;;16.82;41.89;100903.34;5111872;28;20050;-71
2023/04/10 01:02:38;;;;;;;9.43;6.90;;;;;;;16.78;41.93;100897.31;5111517;28;20442;-71
2023/04/10 01:05:06;;;;;;;8.60;6.10;;;;;;;16.76;42.05;100898.41;5111894;28;20484;-71
2023/04/10 01:07:48;;;;;;;9.15;6.32;;;;;;;16.75;41.93;100891.31;5112042;28;20044;-71
2023/04/10 01:10:26;;;;;;;8.82;6.43;;;;;;;16.73;41.99;100896.81;5112120;28;20048;-71
2023/04/10 01:13:04;;;;;;;8.75;6.25;;;;;;;16.71;41.94;100895.22;5111776;28;20044;-71
2023/04/10 01:15:42;;;;;;;9.10;6.18;;;;;;;16.71;41.87;100895.22;5112047;28;20039;-71
2023/04/10 01:18:19;;;;;;;9.02;6.45;;;;;;;16.67;41.97;100891.84;5111873;28;20047;-71
2023/04/10 01:20:47;;;;;;;9.00;6.32;;;;;;;16.67;42.08;100893.69;5111855;28;20065;-71
2023/04/10 01:23:53;;;;;;;8.82;6.25;;;;;;;16.65;42.10;100896.50;5111564;28;20120;-71
2023/04/10 01:26:39;;;;;;;8.38;6.32;;;;;;;16.63;41.94;100886.81;5111831;28;20101;-71
2023/04/10 01:29:11;;;;;;;9.02;6.25;;;;;;;16.58;42.23;100885.31;5111591;28;20595;-72
2023/04/10 01:31:46;;;;;;;9.82;6.88;;;;;;;16.59;42.07;100902.31;5111658;28;20382;-72
2023/04/10 01:34:19;;;;;;;8.32;6.53;;;;;;;16.55;41.98;100882.00;5111894;28;20044;-72
2023/04/10 01:36:50;;;;;;;9.32;6.97;;;;;;;16.56;42.04;100892.66;5111718;28;20477;-72
2023/04/10 01:39:20;;;;;;;9.48;6.88;;;;;;;16.49;42.19;100880.63;5111609;28;20082;-71
2023/04/10 01:41:51;;;;;;;9.68;6.70;;;;;;;16.50;41.96;100887.75;5111621;28;20043;-72
2023/04/10 01:44:24;;;;;;;9.75;6.80;;;;;;;16.49;42.22;100894.06;5111715;28;20390;-72
2023/04/10 01:46:54;;;;;;;9.00;6.60;;;;;;;16.46;42.08;100891.63;5111511;28;20450;-72
2023/04/10 01:49:25;;;;;;;10.00;6.78;;;;;;;16.46;41.79;100891.63;5111558;28;20073;-72
2023/04/10 01:51:57;;;;;;;10.02;6.93;;;;;;;16.44;41.96;100890.88;5111596;28;20055;-72
2023/04/10 01:54:27;;;;;;;8.48;6.35;;;;;;;16.43;42.16;100891.84;5111401;28;20116;-72
2023/04/10 01:56:56;;;;;;;9.23;6.65;;;;;;;16.42;41.97;100894.66;5112636;28;20043;-72
2023/04/10 01:59:26;;;;;;;9.73;7.00;;;;;;;16.36;42.02;100882.50;5115175;28;20075;-72
2023/04/10 02:01:56;;;;;;;9.43;7.00;;;;;;;16.38;42.01;100888.63;5115101;28;20079;-72
2023/04/10 02:04:26;;;;;;;8.70;6.82;;;;;;;16.37;42.07;100892.31;5114885;28;20052;-72
2023/04/10 02:07:03;;;;;;;9.52;7.35;;;;;;;16.35;42.10;100888.88;5114846;28;20043;-72
2023/04/10 02:09:40;;;;;;;10.13;6.50;;;;;;;16.35;41.94;100894.25;5115030;28;20048;-72
2023/04/10 02:12:13;;;;;;;8.95;6.38;;;;;;;16.31;42.12;100890.94;5115043;28;20120;-72
2023/04/10 02:14:45;;;;;;;10.05;7.05;;;;;;;16.31;42.04;100890.09;5114838;28;20044;-72
2023/04/10 02:17:16;;;;;;;9.10;6.70;;;;;;;16.27;42.06;100886.75;5114722;28;20101;-72
2023/04/10 02:19:47;;;;;;;9.90;7.00;;;;;;;16.26;42.09;100892.25;5114568;28;20056;-72
2023/04/10 02:22:16;;;;;;;9.93;6.88;;;;;;;16.25;42.04;100888.69;5114837;28;20067;-72
2023/04/10 02:24:44;;;;;;;9.48;6.72;;;;;;;16.23;42.16;100887.09;5114760;28;20089;-72
2023/04/10 02:27:12;;;;;;;8.77;6.18;;;;;;;16.21;42.12;100891.72;5114601;28;20062;-71
2023/04/10 02:29:41;;;;;;;9.65;6.53;;;;;;;16.19;42.11;100896.34;5114352;28;20093;-71
2023/04/10 02:32:10;;;;;;;9.32;6.45;;;;;;;16.18;42.01;100891.94;5114316;28;20047;-72
2023/04/10 02:34:38;;;;;;;9.57;6.80;;;;;;;16.14;42.07;100891.31;5114614;28;20047;-72
2023/04/10 02:37:06;;;;;;;9.30;6.32;;;;;;;16.16;42.06;100884.00;5114560;28;20051;-72
2023/04/10 02:39:35;;;;;;;10.05;7.10;;;;;;;16.13;41.93;100881.53;5114416;28;20054;-72
2023/04/10 02:42:04;;;;;;;8.57;6.63;;;;;;;16.13;41.99;100877.97;5114281;28;20502;-72
2023/04/10 02:44:32;;;;;;;9.10;6.72;;;;;;;16.10;42.03;100873.66;5114206;28;20472;-72
2023/04/10 02:47:02;;;;;;;8.85;6.47;;;;;;;16.09;42.07;100868.41;5114160;28;20047;-72
2023/04/10 02:49:30;;;;;;;8.88;6.40;;;;;;;16.08;42.08;100870.22;5114356;28;20052;-71
2023/04/10 02:51:58;;;;;;;9.65;7.05;;;;;;;16.07;42.11;100870.34;5114196;28;20047;-71
2023/04/10 02:54:26;;;;;;;10.27;6.60;;;;;;;16.05;42.05;100865.09;5114035;28;20093;-71
2023/04/10 02:56:55;;;;;;;9.65;6.88;;;;;;;16.03;42.10;100862.50;5114077;28;20048;-71
2023/04/10 02:59:24;;;;;;;9.18;6.93;;;;;;;16.01;41.97;100861.75;5113673;28;20138;-71
2023/04/10 03:01:52;;;;;;;9.35;6.68;;;;;;;16.00;42.13;100862.72;5114081;28;20040;-71
2023/04/10 03:04:22;;;;;;;9.75;7.22;;;;;;;15.99;42.03;100860.13;5113624;28;20539;-71
2023/04/10 03:06:50;;;;;;;9.35;6.95;;;;;;;15.97;42.11;100857.56;5113824;28;20053;-72
2023/04/10 03:09:18;;;;;;;9.15;6.53;;;;;;;15.96;42.07;100846.91;5113422;28;20044;-71
2023/04/10 03:11:46;;;;;;;9.82;6.72;;;;;;;15.95;42.12;100855.97;5113676;28;20138;-71
2023/04/10 03:14:15;;;;;;;9.30;7.00;;;;;;;15.93;42.06;100864.16;5113506;28;20085;-72
2023/04/10 03:16:43;;;;;;;9.40;6.70;;;;;;;15.92;41.95;100869.63;5113762;28;20040;-72
2023/04/10 03:19:12;;;;;;;8.75;6.53;;;;;;;15.91;42.05;100867.91;5113535;28;20400;-72
2023/04/10 03:21:42;;;;;;;10.18;6.88;;;;;;;15.89;42.14;100859.94;5113303;28;20478;-73
2023/04/10 03:24:12;;;;;;;9.43;6.80;;;;;;;15.87;42.07;100866.41;5113378;28;20055;-71
2023/04/10 03:26:43;;;;;;;;;;;;;;;15.85;41.92;100866.53;5113704;28;20048;-71
2023/04/10 03:29:11;;;;;;;9.50;7.13;;;;;;;15.84;42.09;100866.66;5113270;28;19972;-71
2023/04/10 03:31:39;;;;;;;9.63;6.90;;;;;;;15.83;42.19;100868.47;5113350;28;20404;-71
2023/04/10 03:34:07;;;;;;;9.70;6.78;;;;;;;15.80;42.19;100873.22;5113132;28;20480;-72
2023/04/10 03:36:36;;;;;;;9.40;6.68;;;;;;;15.80;42.22;100870.50;5113334;28;20096;-72
2023/04/10 03:39:05;;;;;;;10.02;7.00;;;;;;;15.77;41.97;100876.97;5113070;28;20043;-72
2023/04/10 03:41:34;;;;;;;10.00;7.15;;;;;;;15.78;42.15;100872.47;5113429;28;20067;-72
2023/04/10 03:44:02;;;;;;;9.70;7.00;;;;;;;15.76;42.04;100872.56;5113005;28;20626;-71
2023/04/10 03:46:30;;;;;;;9.30;6.65;;;;;;;15.75;42.23;100873.56;5112922;28;20101;-71
2023/04/10 03:48:59;;;;;;;9.20;6.47;;;;;;;15.73;42.19;100876.34;5112973;28;20082;-71
2023/04/10 03:51:27;;;;;;;9.18;6.45;;;;;;;15.71;42.16;100877.41;5112860;28;20048;-71
2023/04/10 03:53:55;;;;;;;9.32;6.97;;;;;;;15.70;42.14;100875.69;5112724;28;20516;-71
2023/04/10 03:56:25;;;;;;;9.50;6.78;;;;;;;15.67;42.11;100870.53;5113036;28;20052;-71
2023/04/10 03:58:53;;;;;;;9.45;6.68;;;;;;;15.67;42.13;100875.94;5112941;28;20149;-71
2023/04/10 04:01:22;;;;;;;9.00;6.70;;;;;;;15.65;42.14;100884.09;5112687;28;20477;-71
2023/04/10 04:03:50;;;;;;;10.88;6.70;;;;;;;15.64;42.13;100873.47;5112663;28;20047;-71
2023/04/10 04:06:19;;;;;;;9.30;6.97;;;;;;;15.64;42.22;100886.91;5112432;28;20096;-71
2023/04/10 04:08:48;;;;;;;9.40;6.70;;;;;;;15.61;42.16;100885.28;5112546;28;20079;-72
2023/04/10 04:11:16;;;;;;;10.77;6.57;;;;;;;15.58;42.10;100879.22;5112819;28;20050;-71
2023/04/10 04:13:45;;;;;;;9.07;6.25;;;;;;;15.59;42.26;100892.56;5112718;28;20409;-72
2023/04/10 04:16:13;;;;;;;9.82;6.97;;;;;;;15.58;42.16;100890.00;5112447;28;20047;-71
2023/04/10 04:18:42;;;;;;;10.80;7.25;;;;;;;15.57;42.17;100896.34;5112242;28;20069;-72
2023/04/10 04:21:10;;;;;;;9.60;6.65;;;;;;;15.55;42.19;100892.91;5112005;28;20040;-72
2023/04/10 04:23:38;;;;;;;10.25;7.00;;;;;;;15.54;42.08;100889.34;5112336;28;20050;-71
2023/04/10 04:26:06;;;;;;;9.25;7.20;;;;;;;15.52;42.33;100891.28;5112176;28;20489;-72
2023/04/10 04:28:35;;;;;;;8.93;6.72;;;;;;;15.51;42.17;100886.00;5112165;28;20398;-72
2023/04/10 04:31:05;;;;;;;10.00;7.18;;;;;;;15.51;42.31;100892.25;5112277;28;20040;-72
2023/04/10 04:33:34;;;;;;;8.77;6.32;;;;;;;15.50;42.26;100887.84;5112311;28;20412;-72
2023/04/10 04:36:02;;;;;;;9.93;7.22;;;;;;;15.35;42.40;100876.34;5112434;28;20064;-72
2023/04/10 04:38:30;;;;;;;9.63;6.43;;;;;;;15.45;42.27;100887.31;5112365;28;20047;-72
2023/04/10 04:40:59;;;;;;;9.63;6.70;;;;;;;15.46;42.24;100899.78;5112211;28;20048;-72
2023/04/10 04:43:27;;;;;;;9.85;6.65;;;;;;;15.44;42.34;100899.91;5112231;28;20086;-72
2023/04/10 04:45:55;;;;;;;10.07;6.85;;;;;;;15.44;42.29;100902.59;5111986;28;20162;-72
2023/04/10 04:48:25;;;;;;;10.07;7.20;;;;;;;15.42;42.27;100909.88;5112340;28;20048;-72
2023/04/10 04:50:53;;;;;;;8.02;6.22;;;;;;;15.44;42.26;100910.66;5112213;28;20159;-72
2023/04/10 04:53:22;;;;;;;8.75;6.40;;;;;;;15.47;42.57;100917.63;5112136;28;20450;-72
2023/04/10 04:55:50;;;;;;;9.52;6.78;;;;;;;15.50;42.76;100911.19;5112018;28;20048;-72
2023/04/10 04:58:19;;;;;;;8.95;6.25;;;;;;;15.58;42.82;100914.19;5112006;28;20040;-72
2023/04/10 05:00:47;;;;;;;9.13;6.40;;;;;;;15.65;42.82;100921.75;5111872;28;20428;-72
2023/04/10 05:03:15;;;;;;;7.90;5.47;;;;;;;15.71;42.77;100910.53;5112144;28;20050;-72
2023/04/10 05:05:45;;;;;;;7.85;5.95;;;;;;;15.78;42.87;100921.72;5111979;28;20047;-72
2023/04/10 05:08:13;;;;;;;8.48;5.90;;;;;;;15.85;42.77;100920.34;5111995;28;20525;-73
2023/04/10 05:10:41;;;;;;;8.52;6.03;;;;;;;15.92;42.73;100924.31;5111942;28;20051;-72
2023/04/10 05:13:09;;;;;;;9.35;6.03;;;;;;;16.02;42.65;100925.38;5111818;28;20120;-72
2023/04/10 05:15:38;;;;;;;8.02;5.68;;;;;;;16.09;42.64;100930.28;5111846;28;20111;-72
2023/04/10 05:18:06;;;;;;;8.38;6.28;;;;;;;16.17;42.30;100935.97;5111937;28;20054;-72
2023/04/10 05:20:35;;;;;;;8.23;6.28;;;;;;;16.24;42.48;100938.13;5111732;28;20050;-72
2023/04/10 05:23:06;;;;;;;8.07;6.20;;;;;;;16.32;42.62;100926.78;5111911;28;20047;-71
2023/04/10 05:25:35;;;;;;;7.70;5.82;;;;;;;16.39;42.34;100928.03;5111645;28;20047;-71
2023/04/10 05:28:03;;;;;;;7.60;5.40;;;;;;;16.43;42.17;100937.63;5111957;28;20143;-70
2023/04/10 05:30:31;;;;;;;8.25;6.05;;;;;;;16.47;42.38;100935.56;5112107;28;20055;-70
2023/04/10 05:32:59;;;;;;;8.45;6.00;;;;;;;16.46;42.54;100926.63;5115799;28;20044;-72
2023/04/10 05:35:28;;;;;;;8.98;5.72;;;;;;;16.48;42.15;100935.44;5115667;28;20086;-72
2023/04/10 05:37:57;;;;;;;9.32;6.30;;;;;;;16.50;42.28;100936.22;5115581;28;20051;-72
2023/04/10 05:40:28;;;;;;;8.77;6.20;;;;;;;16.51;42.20;100929.84;5115848;28;20473;-70
2023/04/10 05:42:56;;;;;;;8.02;6.00;;;;;;;16.50;42.33;100929.94;5115578;28;20082;-71
2023/04/10 05:45:24;;;;;;;8.48;6.38;;;;;;;16.51;42.18;100932.53;5115468;28;20039;-71
2023/04/10 05:47:53;;;;;;;7.97;5.82;;;;;;;16.49;42.16;100928.22;5115291;28;20046;-70
2023/04/10 05:50:21;;;;;;;8.70;6.22;;;;;;;16.38;42.19;100906.63;5115326;28;20044;-71
2023/04/10 05:52:50;;;;;;;8.65;5.70;;;;;;;16.49;42.37;100930.91;5115091;28;20050;-72
2023/04/10 05:55:18;;;;;;;8.35;6.03;;;;;;;16.48;42.17;100932.75;5115443;28;20082;-72
2023/04/10 05:57:50;;;;;;;8.27;5.80;;;;;;;16.48;42.18;100932.75;5115297;28;20469;-72
2023/04/10 06:00:18;;;;;;;8.80;6.25;;;;;;;16.47;42.13;100936.41;5115186;28;20051;-72
2023/04/10 06:02:47;;;;;;;8.65;6.38;;;;;;;16.45;42.23;100934.81;5115096;28;20047;-72
2023/04/10 06:05:15;;;;;;;8.95;6.03;;;;;;;16.45;42.25;100929.44;5114862;28;20570;-71
2023/04/10 06:07:43;;;;;;;8.65;6.07;;;;;;;16.43;42.28;100931.38;5114974;28;20104;-72
2023/04/10 06:10:15;;;;;;;8.50;5.63;;;;;;;16.41;42.12;100928.81;5114987;28;20047;-71
2023/04/10 06:12:44;;;;;;;7.88;5.72;;;;;;;16.40;42.13;100935.16;5115028;28;20048;-70
2023/04/10 06:15:13;;;;;;;9.23;6.45;;;;;;;16.39;41.95;100938.81;5114943;28;20043;-71
2023/04/10 06:17:43;;;;;;;9.85;6.60;;;;;;;16.38;41.95;100931.72;5114903;28;20044;-71
2023/04/10 06:20:12;;;;;;;8.95;6.20;;;;;;;16.37;42.01;100935.38;5115098;28;20101;-72
2023/04/10 06:22:40;;;;;;;8.10;6.00;;;;;;;16.36;42.06;100939.06;5115015;28;20047;-72
2023/04/10 06:25:09;;;;;;;9.60;6.55;;;;;;;16.34;41.93;100935.63;5114615;28;20039;-72
2023/04/10 06:27:37;;;;;;;8.23;5.80;;;;;;;16.32;41.97;100940.25;5114762;28;20412;-72
2023/04/10 06:30:07;;;;;;;9.20;6.13;;;;;;;16.32;41.90;100942.94;5114389;28;20082;-71
2023/04/10 06:32:37;;;;;;;9.82;6.50;;;;;;;16.30;41.92;100934.09;5114356;28;20101;-72
2023/04/10 06:35:06;;;;;;;9.15;6.20;;;;;;;16.29;41.89;100940.47;5114672;28;20043;-71
2023/04/10 06:37:34;;;;;;;10.25;6.53;;;;;;;16.28;41.90;100936.91;5114216;28;20168;-71
2023/04/10 06:40:04;;;;;;;7.97;5.75;;;;;;;16.26;41.86;100936.16;5114208;28;20583;-71
2023/04/10 06:42:32;;;;;;;9.93;6.15;;;;;;;16.25;41.76;100931.75;5113667;28;20040;-73
2023/04/10 06:45:01;;;;;;;9.00;6.40;;;;;;;16.25;41.84;100930.91;5116996;28;20047;-70
2023/04/10 06:47:30;;;;;;;10.10;6.38;;;;;;;16.23;41.83;100935.53;5114031;28;20048;-69
2023/04/10 06:50:00;;;;;;;9.75;6.50;;;;;;;16.22;41.85;100936.53;5114243;28;20082;-75
2023/04/10 06:52:28;;;;;;;8.80;6.18;;;;;;;16.20;41.94;100925.84;5113979;28;20047;-72
2023/04/10 06:54:56;;;;;;;8.50;6.43;;;;;;;16.19;42.06;100925.97;5114173;28;20040;-72
2023/04/10 06:57:24;;;;;;;8.43;6.18;;;;;;;16.19;41.97;100925.97;5114025;28;20047;-72
2023/04/10 06:59:53;;;;;;;8.73;6.43;;;;;;;16.18;41.91;100921.53;5113786;28;20047;-72
2023/04/10 07:02:23;;;;;;;9.48;6.40;;;;;;;16.17;41.91;100925.22;5112153;28;20077;-72
2023/04/10 07:04:52;;;;;;;9.05;6.28;;;;;;;16.17;42.09;100927.91;5093418;28;20135;-71
2023/04/10 07:07:22;;;;;;;9.38;6.80;;;;;;;16.16;42.11;100927.03;5092882;28;20056;-72
2023/04/10 07:09:52;;;;;;;10.30;6.82;;;;;;;16.14;42.12;100925.44;5093171;28;20055;-71
2023/04/10 07:12:21;;;;;;;9.10;6.40;;;;;;;16.13;42.16;100932.66;5093323;28;20048;-72
2023/04/10 07:14:50;;;;;;;8.20;5.90;;;;;;;16.13;42.09;100929.13;5093496;28;20051;-71
2023/04/10 07:17:18;;;;;;;9.25;6.00;;;;;;;16.12;42.22;100924.72;5093392;28;20052;-72
2023/04/10 07:19:46;;;;;;;10.30;6.57;;;;;;;16.12;42.23;100924.72;5093299;28;20052;-72
2023/04/10 07:22:14;;;;;;;9.15;5.95;;;;;;;16.11;42.14;100917.56;5093165;28;20401;-72
2023/04/10 07:24:44;;;;;;;9.23;6.00;;;;;;;16.08;42.27;100918.66;5093005;28;20051;-72
2023/04/10 07:27:12;;;;;;;8.90;5.97;;;;;;;16.08;42.33;100917.81;5092913;28;20413;-72
2023/04/10 07:29:40;;;;;;;10.05;6.40;;;;;;;16.09;42.24;100919.53;5092901;28;20105;-71
2023/04/10 07:32:09;;;;;;;8.65;5.90;;;;;;;16.09;42.16;100908.75;5093082;28;20040;-72
2023/04/10 07:34:37;;;;;;;7.97;6.07;;;;;;;16.07;42.20;100910.72;5092996;28;20455;-72
2023/04/10 07:37:06;;;;;;;9.38;6.43;;;;;;;16.08;42.31;100907.03;5092850;28;20060;-72
2023/04/10 07:39:34;;;;;;;9.07;5.70;;;;;;;16.06;42.31;100898.22;5092544;28;20055;-73
2023/04/10 07:42:04;;;;;;;8.38;5.85;;;;;;;16.06;42.26;100903.63;5092891;28;20430;-71
2023/04/10 07:44:32;;;;;;;8.77;5.72;;;;;;;16.06;42.43;100909.00;5092684;28;20040;-69
2023/04/10 07:47:00;;;;;;;8.65;6.00;;;;;;;16.06;42.35;100903.63;5092596;28;20062;-71
2023/04/10 07:49:28;;;;;;;7.47;5.22;;;;;;;16.05;42.59;100907.28;5094795;28;20040;-68
2023/04/10 07:51:57;;;;;;;7.70;5.30;;;;;;;16.04;42.57;100906.41;5092469;28;20047;-72
2023/04/10 07:54:25;;;;;;;9.43;6.00;;;;;;;16.03;42.61;100910.94;5091430;28;20044;-71
2023/04/10 07:56:53;;;;;;;7.97;5.60;;;;;;;16.03;42.56;100894.81;5092741;28;20070;-71
2023/04/10 07:59:23;;;;;;;8.65;5.53;;;;;;;16.02;42.71;100893.09;5092481;28;20135;-70
2023/04/10 08:01:51;;;;;;;8.50;5.72;;;;;;;16.03;42.66;100892.09;5092350;28;20044;-72
2023/04/10 08:04:19;;;;;;;8.90;6.13;;;;;;;16.02;42.72;100887.69;5092320;28;20043;-71
2023/04/10 08:06:49;;;;;;;8.45;5.47;;;;;;;16.03;42.68;100889.41;5092037;28;20612;-72
2023/04/10 08:09:17;;;;;;;8.18;5.70;;;;;;;16.02;42.75;100887.69;5092283;28;20047;-71
2023/04/10 08:11:46;;;;;;;8.27;5.85;;;;;;;16.03;42.82;100891.25;5092025;28;20485;-70
2023/04/10 08:14:15;;;;;;;7.65;5.57;;;;;;;16.02;42.85;100892.22;5092333;28;20078;-71
2023/04/10 08:16:46;;;;;;;8.80;5.40;;;;;;;16.03;42.90;100892.09;5092211;28;20051;-70
2023/04/10 08:19:15;;;;;;;8.10;5.53;;;;;;;16.03;42.87;100889.41;5092167;28;20044;-71
2023/04/10 08:21:43;;;;;;;7.38;5.32;;;;;;;16.04;42.83;100890.28;5092321;28;20064;-71
2023/04/10 08:24:11;;;;;;;8.32;5.65;;;;;;;16.03;42.96;100889.41;5092360;28;20051;-69
2023/04/10 08:26:39;;;;;;;6.75;5.28;;;;;;;16.03;42.83;100892.09;5074206;28;20476;-70
2023/04/10 08:29:07;;;;;;;6.75;5.18;;;;;;;16.05;42.95;100891.13;5091601;28;20493;-70
2023/04/10 08:31:35;;;;;;;8.30;5.95;;;;;;;16.01;42.87;100883.25;5091481;28;20485;-70
2023/04/10 08:34:05;;;;;;;7.95;5.53;;;;;;;16.05;43.10;100880.38;5092007;28;20044;-69
2023/04/10 08:36:34;;;;;;;9.20;5.72;;;;;;;16.05;43.00;100880.38;5091882;28;20048;-70
2023/04/10 08:39:05;;;;;;;7.35;5.40;;;;;;;16.07;43.08;100873.03;5091718;28;20043;-70
2023/04/10 08:41:33;;;;;;;7.70;5.25;;;;;;;16.05;43.03;100870.47;5091834;28;20040;-69
2023/04/10 08:44:02;;;;;;;6.93;5.10;;;;;;;16.08;43.13;100874.75;5091681;28;20066;-69
2023/04/10 08:46:35;;;;;;;8.35;5.30;;;;;;;16.08;43.16;100869.38;5091435;28;20090;-70
2023/04/10 08:49:05;;;;;;;8.13;5.57;;;;;;;16.09;43.13;100871.09;5091872;28;20048;-69
2023/04/10 08:51:41;;;;;;;8.30;5.60;;;;;;;16.09;43.19;100863.88;5091748;28;20119;-70
2023/04/10 08:54:18;;;;;;;8.50;5.50;;;;;;;16.10;43.32;100867.41;5091469;28;20481;-70
2023/04/10 08:56:50;;;;;;;7.63;5.10;;;;;;;16.09;43.07;100868.41;5091564;28;20048;-69
2023/04/10 08:59:18;;;;;;;7.45;5.25;;;;;;;16.11;43.44;100861.91;5091726;28;20486;-70
2023/04/10 09:01:47;;;;;;;9.82;5.70;;;;;;;16.14;43.42;100868.94;5091627;28;20538;-70
2023/04/10 09:04:16;;;;;;;8.02;5.43;;;;;;;16.13;43.30;100868.06;5091614;28;20121;-70
2023/04/10 09:06:45;;;;;;;8.05;5.40;;;;;;;16.10;43.40;100857.50;5094307;28;20052;-70
2023/04/10 09:09:13;;;;;;;8.25;5.30;;;;;;;16.15;43.37;100854.50;5095540;28;20084;-70
2023/04/10 09:11:59;;;;;;;8.68;5.72;;;;;;;16.16;43.42;100856.22;5095501;28;20044;-70
2023/04/10 09:14:30;;;;;;;8.23;5.45;;;;;;;16.15;43.58;100851.81;5095466;28;20155;-69
2023/04/10 09:17:13;;;;;;;7.65;5.47;;;;;;;16.17;43.42;100853.41;5095566;28;20048;-69
2023/04/10 09:19:43;;;;;;;8.40;5.47;;;;;;;16.18;43.65;100854.25;5095493;28;20413;-71
2023/04/10 09:22:12;;;;;;;8.38;5.72;;;;;;;16.19;43.52;100855.97;5095398;28;20106;-70
2023/04/10 09:24:42;;;;;;;8.93;5.22;;;;;;;16.21;43.59;100845.94;5095440;28;20083;-69
2023/04/10 09:27:10;;;;;;;9.68;5.60;;;;;;;16.24;43.62;100848.44;5095279;28;20132;-70
2023/04/10 09:29:41;;;;;;;8.90;5.95;;;;;;;16.23;43.80;100835.97;5095107;28;20051;-71
2023/04/10 09:32:09;;;;;;;7.97;4.65;;;;;;;16.26;43.86;100846.47;5095168;28;20477;-71
2023/04/10 09:34:55;;;;;;;7.40;5.15;;;;;;;16.27;43.73;100840.13;5094883;28;20127;-70
2023/04/10 09:37:31;;;;;;;7.35;5.20;;;;;;;16.28;43.93;100841.84;5095329;28;20414;-70
2023/04/10 09:40:00;;;;;;;8.15;5.20;;;;;;;16.30;43.91;100838.06;5094961;28;20044;-70
2023/04/10 09:42:32;;;;;;;7.18;4.75;;;;;;;16.33;44.02;100836.13;5095053;28;20082;-71
2023/04/10 09:45:01;;;;;;;9.55;5.72;;;;;;;16.34;44.08;100827.94;5095012;28;20044;-70
2023/04/10 09:47:30;;;;;;;12.52;5.60;;;;;;;16.36;44.10;100831.34;5095011;28;20056;-70
2023/04/10 09:50:03;;;;;;;7.97;5.30;;;;;;;16.38;43.97;100828.56;5094931;28;20047;-70
2023/04/10 09:52:32;;;;;;;9.43;5.47;;;;;;;16.39;43.95;100831.13;5094835;28;20428;-70
2023/04/10 09:55:03;;;;;;;8.80;5.50;;;;;;;16.40;43.94;100822.06;5094627;28;20093;-70
2023/04/10 09:57:33;;;;;;;8.10;5.70;;;;;;;16.43;43.70;100832.63;5094646;28;20044;-70
2023/04/10 10:00:05;;;;;;;8.45;5.30;;;;;;;16.43;43.84;100819.16;5094638;28;20497;-70
2023/04/10 10:02:37;;;;;;;7.80;5.50;;;;;;;16.47;43.83;100823.31;5094585;28;20059;-70
2023/04/10 10:05:08;;;;;;;7.93;5.38;;;;;;;16.51;43.96;100829.34;5094517;28;20127;-70
2023/04/10 10:07:38;;;;;;;8.00;5.22;;;;;;;16.50;44.06;100817.72;5094508;28;20409;-70
2023/04/10 10:10:07;;;;;;;8.50;5.25;;;;;;;16.52;43.95;100826.53;5094457;28;20048;-71
2023/04/10 10:12:45;;;;;;;7.90;5.30;;;;;;;16.54;44.03;100816.50;5094547;28;20382;-71
2023/04/10 10:15:20;;;;;;;9.05;5.18;;;;;;;16.56;43.98;100817.25;5094575;28;20461;-71
2023/04/10 10:17:56;;;;;;;8.20;5.13;;;;;;;16.55;44.09;100815.53;5093321;28;20044;-71
2023/04/10 10:20:26;;;;;;;9.98;5.32;;;;;;;16.57;44.12;100808.19;5094091;28;20131;-71
2023/04/10 10:22:58;;;;;;;8.13;5.70;;;;;;;16.58;44.21;100807.22;5076179;28;20070;-70
2023/04/10 10:25:27;;;;;;;7.60;5.53;;;;;;;16.58;44.06;100804.50;5094286;28;20050;-70
2023/04/10 10:28:02;;;;;;;7.30;5.20;;;;;;;16.59;44.22;100800.84;5094240;28;20048;-70
2023/04/10 10:30:32;;;;;;;7.57;5.37;;;;;;;16.61;44.11;100803.44;5093906;28;20052;-70
2023/04/10 10:33:05;;;;;;;8.00;5.43;;;;;;;16.62;44.21;100807.00;5094074;28;20040;-70
2023/04/10 10:35:36;;;;;;;7.53;5.32;;;;;;;16.63;44.18;100806.00;5094194;28;20040;-71
2023/04/10 10:38:05;;;;;;;7.10;5.20;;;;;;;16.64;44.23;100802.34;5094380;28;20108;-71
2023/04/10 10:40:41;;;;;;;8.70;5.55;;;;;;;16.65;44.25;100807.59;5094018;28;20040;-70
2023/04/10 10:43:16;;;;;;;8.18;5.60;;;;;;;16.64;44.10;100796.97;5094037;28;20059;-70
2023/04/10 10:45:52;;;;;;;7.95;5.50;;;;;;;16.64;44.30;100803.19;5093813;28;20047;-70
2023/04/10 10:48:20;;;;;;;7.35;5.15;;;;;;;16.67;44.20;100805.66;5093858;28;20052;-70
2023/04/10 10:50:56;;;;;;;6.80;5.13;;;;;;;16.68;44.17;100798.41;5093786;28;20044;-70
2023/04/10 10:53:36;;;;;;;7.32;5.22;;;;;;;16.68;44.23;100787.66;5093726;28;20408;-70
2023/04/10 10:56:35;;;;;;;7.80;5.43;;;;;;;16.70;44.23;100791.13;5093553;28;20091;-71
2023/04/10 10:59:04;;;;;;;7.95;5.38;;;;;;;16.66;44.29;100785.06;5093610;28;20231;-71
2023/04/10 11:01:32;;;;;;;8.63;5.25;;;;;;;16.70;44.17;100793.84;5093531;28;20055;-70
2023/04/10 11:04:21;;;;;;;7.05;5.00;;;;;;;16.72;44.30;100794.56;5093463;28;20382;-69
2023/04/10 11:06:52;;;;;;;7.45;4.90;;;;;;;16.70;44.33;100797.38;5093338;28;20090;-70
2023/04/10 11:09:49;;;;;;;8.45;5.88;;;;;;;16.73;44.43;100801.66;5093243;28;20083;-71
2023/04/10 11:12:20;;;;;;;7.75;4.93;;;;;;;16.74;44.34;100795.31;5093303;28;20044;-72
2023/04/10 11:14:57;;;;;;;7.93;5.28;;;;;;;16.74;44.26;100789.91;5093284;28;20086;-70
2023/04/10 11:17:49;;;;;;;8.18;5.22;;;;;;;16.75;44.27;100797.00;5093391;28;20051;-70
2023/04/10 11:20:20;;;;;;;7.78;5.18;;;;;;;16.74;44.20;100790.78;5093202;28;20048;-71
2023/04/10 11:23:10;;;;;;;7.63;5.38;;;;;;;16.75;44.33;100791.63;5093332;28;20456;-71
2023/04/10 11:25:50;;;;;;;7.45;5.40;;;;;;;16.75;44.15;100789.78;5092988;28;20473;-71
2023/04/10 11:28:39;;;;;;;9.30;5.07;;;;;;;16.76;44.16;100796.03;5092798;28;20846;-71
2023/04/10 11:31:18;;;;;;;7.25;4.95;;;;;;;16.77;44.14;100787.84;5087215;28;20051;-71
2023/04/10 11:33:47;;;;;;;9.63;5.70;;;;;;;16.77;44.23;100789.66;5093267;28;20048;-70
2023/04/10 11:36:17;;;;;;;8.13;5.28;;;;;;;16.78;44.21;100786.84;5092969;28;20071;-70
2023/04/10 11:38:57;;;;;;;8.07;5.22;;;;;;;16.78;44.14;100789.53;5092889;28;20069;-70